createdAt,value
2023-05-15T00:00:27.872Z,3.15
2023-05-15T00:02:57.304Z,3.55
2023-05-15T00:05:26.111Z,3.60
2023-05-15T00:07:54.724Z,3.40
2023-05-15T00:10:23.268Z,3.22
2023-05-15T00:12:52.984Z,3.15
2023-05-15T00:15:24.155Z,3.53
2023-05-15T00:17:52.784Z,3.10
2023-05-15T00:20:21.689Z,3.20
2023-05-15T00:22:49.979Z,3.28
2023-05-15T00:25:19.627Z,3.28
2023-05-15T00:27:47.997Z,3.17
2023-05-15T00:30:17.995Z,3.38
2023-05-15T00:32:46.616Z,3.08
2023-05-15T00:35:14.873Z,3.40
2023-05-15T00:37:43.185Z,3.70
2023-05-15T00:40:18.857Z,4.00
2023-05-15T00:42:48.179Z,4.03
2023-05-15T00:45:20.515Z,3.77
2023-05-15T00:47:49.207Z,3.65
2023-05-15T00:50:18.005Z,3.85
2023-05-15T00:52:46.914Z,4.05
2023-05-15T00:55:15.284Z,4.03
2023-05-15T00:57:45.013Z,3.60
2023-05-15T01:00:16.893Z,3.85
2023-05-15T01:02:47.313Z,3.58
2023-05-15T01:05:15.719Z,3.83
2023-05-15T01:07:51.289Z,4.03
2023-05-15T01:10:22.406Z,4.45
2023-05-15T01:12:54.179Z,4.40
2023-05-15T01:15:22.716Z,4.38
2023-05-15T01:17:52.901Z,4.97
2023-05-15T01:20:23.976Z,5.10
2023-05-15T01:23:00.688Z,5.30
2023-05-15T01:25:54.241Z,5.68
2023-05-15T01:28:31.986Z,5.60
2023-05-15T01:31:07.235Z,6.25
2023-05-15T01:33:42.846Z,6.30
2023-05-15T01:36:17.538Z,6.07
2023-05-15T01:38:49.997Z,6.45
2023-05-15T01:41:27.899Z,5.95
2023-05-15T01:44:03.807Z,6.55
2023-05-15T01:46:34.801Z,6.18
2023-05-15T01:49:04.318Z,6.10
2023-05-15T01:51:34.333Z,6.70
2023-05-15T01:54:03.871Z,6.05
2023-05-15T01:56:33.296Z,6.05
2023-05-15T01:59:05.151Z,6.60
2023-05-15T02:01:34.441Z,6.50
2023-05-15T02:04:04.979Z,6.13
2023-05-15T02:06:34.349Z,6.57
2023-05-15T02:09:04.234Z,5.93
2023-05-15T02:11:32.519Z,6.35
2023-05-15T02:14:03.358Z,6.70
2023-05-15T02:16:31.895Z,6.65
2023-05-15T02:19:00.299Z,7.15
2023-05-15T02:21:28.569Z,6.60
2023-05-15T02:23:56.883Z,6.80
2023-05-15T02:26:34.399Z,7.03
2023-05-15T02:29:14.775Z,7.55
2023-05-15T02:31:52.066Z,7.43
2023-05-15T02:34:27.990Z,7.45
2023-05-15T02:36:59.124Z,7.18
2023-05-15T02:39:28.864Z,7.07
2023-05-15T02:41:59.059Z,7.28
2023-05-15T02:44:30.042Z,7.50
2023-05-15T02:46:59.500Z,7.57
2023-05-15T02:49:27.852Z,7.60
2023-05-15T02:51:56.163Z,7.35
2023-05-15T02:54:24.623Z,7.63
2023-05-15T02:56:52.919Z,7.50
2023-05-15T02:59:21.311Z,7.18
2023-05-15T03:01:51.273Z,6.95
2023-05-15T03:04:19.657Z,7.38
2023-05-15T03:06:48.069Z,7.65
2023-05-15T03:09:16.595Z,7.68
2023-05-15T03:11:44.942Z,6.65
2023-05-15T03:14:13.396Z,6.70
2023-05-15T03:16:41.762Z,6.43
2023-05-15T03:19:11.559Z,7.03
2023-05-15T03:21:39.936Z,6.53
2023-05-15T03:24:08.584Z,6.50
2023-05-15T03:26:37.520Z,6.03
2023-05-15T03:29:05.723Z,6.07
2023-05-15T03:31:34.014Z,6.53
2023-05-15T03:34:02.444Z,6.40
2023-05-15T03:36:56.628Z,6.00
2023-05-15T03:39:25.020Z,6.18
2023-05-15T03:41:53.213Z,5.43
2023-05-15T03:44:23.904Z,6.25
2023-05-15T03:46:52.281Z,6.07
2023-05-15T03:49:20.615Z,6.22
2023-05-15T03:51:50.384Z,5.53
2023-05-15T03:54:18.770Z,6.53
2023-05-15T03:56:47.089Z,5.43
2023-05-15T03:59:15.332Z,5.95
2023-05-15T04:01:55.736Z,5.78
2023-05-15T04:04:31.533Z,5.68
2023-05-15T04:07:01.524Z,5.28
2023-05-15T04:09:29.803Z,5.68
2023-05-15T04:11:58.050Z,6.18
2023-05-15T04:14:26.820Z,5.78
2023-05-15T04:16:55.072Z,6.10
2023-05-15T04:19:23.417Z,6.55
2023-05-15T04:21:51.710Z,6.07
2023-05-15T04:24:21.614Z,6.47
2023-05-15T04:26:49.928Z,6.82
2023-05-15T04:29:18.405Z,6.50
2023-05-15T04:31:46.676Z,6.70
2023-05-15T04:34:14.989Z,6.57
2023-05-15T04:36:43.284Z,7.68
2023-05-15T04:39:12.570Z,7.32
2023-05-15T04:41:42.252Z,6.97
2023-05-15T04:44:10.532Z,6.82
2023-05-15T04:46:39.729Z,12.00
2023-05-15T04:49:08.055Z,18.98
2023-05-15T04:51:36.323Z,25.38
2023-05-15T04:54:04.901Z,17.45
2023-05-15T04:56:33.398Z,14.40
2023-05-15T04:59:03.237Z,12.77
2023-05-15T05:01:31.595Z,11.32
2023-05-15T05:03:59.896Z,9.57
2023-05-15T05:06:30.269Z,9.20
2023-05-15T05:08:59.229Z,8.93
2023-05-15T05:11:27.565Z,8.38
2023-05-15T05:13:55.939Z,8.07
2023-05-15T05:16:25.701Z,7.60
2023-05-15T05:18:54.168Z,7.80
2023-05-15T05:21:22.416Z,8.25
2023-05-15T05:23:50.709Z,8.48
2023-05-15T05:26:18.946Z,7.63
2023-05-15T05:28:47.202Z,7.93
2023-05-15T05:31:15.532Z,7.95
2023-05-15T05:33:45.220Z,7.53
2023-05-15T05:36:13.454Z,7.32
2023-05-15T05:38:41.692Z,7.60
2023-05-15T05:41:10.093Z,7.53
2023-05-15T05:43:38.342Z,7.38
2023-05-15T05:46:06.706Z,6.97
2023-05-15T05:48:35.052Z,7.63
2023-05-15T05:51:04.968Z,7.15
2023-05-15T05:53:33.519Z,7.85
2023-05-15T05:56:01.885Z,7.55
2023-05-15T05:58:30.180Z,7.28
2023-05-15T06:00:58.651Z,7.88
2023-05-15T06:03:27.631Z,7.13
2023-05-15T06:05:56.036Z,6.95
2023-05-15T06:08:25.913Z,7.53
2023-05-15T06:10:54.073Z,7.10
2023-05-15T06:13:22.483Z,8.13
2023-05-15T06:15:51.976Z,7.45
2023-05-15T06:18:20.353Z,8.05
2023-05-15T06:20:51.092Z,8.35
2023-05-15T06:23:19.405Z,8.50
2023-05-15T06:25:49.152Z,7.97
2023-05-15T06:28:17.397Z,7.75
2023-05-15T06:30:45.808Z,7.57
2023-05-15T06:33:14.146Z,7.60
2023-05-15T06:35:42.582Z,7.68
2023-05-15T06:38:10.905Z,7.28
2023-05-15T06:40:39.202Z,7.68
2023-05-15T06:43:08.840Z,7.47
2023-05-15T06:45:37.212Z,7.75
2023-05-15T06:48:06.005Z,7.38
2023-05-15T06:50:34.369Z,7.72
2023-05-15T06:53:02.645Z,7.72
2023-05-15T06:55:31.045Z,7.15
2023-05-15T06:57:59.239Z,7.25
2023-05-15T07:00:29.023Z,6.97
2023-05-15T07:02:57.415Z,7.07
2023-05-15T07:05:25.939Z,7.10
2023-05-15T07:07:54.404Z,7.18
2023-05-15T07:10:22.871Z,6.65
2023-05-15T07:12:51.750Z,7.40
2023-05-15T07:15:20.102Z,7.13
2023-05-15T07:17:50.004Z,7.22
2023-05-15T07:20:18.411Z,7.43
2023-05-15T07:22:55.716Z,7.57
2023-05-15T07:25:25.572Z,7.60
2023-05-15T07:27:54.305Z,6.90
2023-05-15T07:30:23.153Z,6.88
2023-05-15T07:32:53.016Z,7.03
2023-05-15T07:35:21.349Z,6.45
2023-05-15T07:37:49.704Z,6.35
2023-05-15T07:40:18.051Z,6.10
2023-05-15T07:42:47.039Z,5.32
2023-05-15T07:45:15.475Z,5.72
2023-05-15T07:47:47.243Z,5.63
2023-05-15T07:50:17.754Z,5.97
2023-05-15T07:52:46.007Z,5.45
2023-05-15T07:55:14.321Z,5.78
2023-05-15T07:57:42.647Z,5.00
2023-05-15T08:00:11.934Z,4.75
2023-05-15T08:02:40.787Z,4.93
2023-05-15T08:05:09.702Z,4.90
2023-05-15T08:07:39.425Z,4.95
2023-05-15T08:10:09.192Z,5.20
2023-05-15T08:12:37.958Z,5.78
2023-05-15T08:15:06.980Z,5.30
2023-05-15T08:17:35.251Z,5.80
2023-05-15T08:20:05.071Z,5.47
2023-05-15T08:22:33.470Z,4.80
2023-05-15T08:25:03.949Z,5.18
2023-05-15T08:27:32.333Z,5.05
2023-05-15T08:30:00.572Z,5.25
2023-05-15T08:32:29.013Z,4.68
2023-05-15T08:34:58.107Z,4.88
2023-05-15T08:37:26.419Z,5.30
2023-05-15T08:39:54.926Z,5.03
2023-05-15T08:42:29.437Z,5.15
2023-05-15T08:44:58.189Z,5.45
2023-05-15T08:47:29.474Z,5.53
2023-05-15T08:50:04.964Z,6.03
2023-05-15T08:52:34.331Z,5.53
2023-05-15T08:55:04.480Z,5.57
2023-05-15T08:57:34.905Z,5.35
2023-05-15T09:00:08.772Z,6.00
2023-05-15T09:02:37.745Z,5.47
2023-05-15T09:05:07.262Z,6.20
2023-05-15T09:07:35.847Z,5.90
2023-05-15T09:10:05.785Z,5.07
2023-05-15T09:12:37.980Z,5.68
2023-05-15T09:15:10.899Z,5.13
2023-05-15T09:17:39.791Z,6.00
2023-05-15T09:20:09.424Z,5.32
2023-05-15T09:22:37.799Z,5.65
2023-05-15T09:25:06.773Z,5.57
2023-05-15T09:27:45.122Z,4.90
2023-05-15T09:30:14.634Z,5.43
2023-05-15T09:32:43.103Z,5.15
2023-05-15T09:35:29.992Z,4.82
2023-05-15T09:38:02.165Z,5.25
2023-05-15T09:40:31.808Z,4.90
2023-05-15T09:43:01.610Z,5.05
2023-05-15T09:45:31.693Z,4.60
2023-05-15T09:48:02.513Z,5.45
2023-05-15T09:50:35.990Z,5.18
2023-05-15T09:53:05.051Z,4.68
2023-05-15T09:55:34.280Z,5.00
2023-05-15T09:58:08.025Z,5.07
2023-05-15T10:00:36.904Z,5.38
2023-05-15T10:03:21.175Z,4.70
2023-05-15T10:05:49.722Z,5.22
2023-05-15T10:08:28.382Z,5.75
2023-05-15T10:11:00.485Z,5.50
2023-05-15T10:13:35.454Z,5.03
2023-05-15T10:16:04.912Z,5.00
2023-05-15T10:18:35.937Z,5.47
2023-05-15T10:21:05.324Z,5.68
2023-05-15T10:23:36.796Z,6.00
2023-05-15T10:26:12.210Z,5.60
2023-05-15T10:28:44.784Z,5.32
2023-05-15T10:31:14.012Z,5.57
2023-05-15T10:33:43.176Z,5.32
2023-05-15T10:36:12.002Z,5.18
2023-05-15T10:38:41.459Z,4.95
2023-05-15T10:41:17.618Z,5.20
2023-05-15T10:43:49.444Z,5.43
2023-05-15T10:46:18.363Z,5.40
2023-05-15T10:48:47.282Z,6.38
2023-05-15T10:51:20.074Z,5.95
2023-05-15T10:53:48.785Z,5.78
2023-05-15T10:56:17.851Z,6.25
2023-05-15T10:58:48.985Z,6.63
2023-05-15T11:01:38.848Z,5.60
2023-05-15T11:04:12.508Z,6.30
2023-05-15T11:06:42.428Z,5.95
2023-05-15T11:09:36.810Z,5.85
2023-05-15T11:12:06.838Z,6.25
2023-05-15T11:14:38.437Z,5.80
2023-05-15T11:19:55.505Z,6.38
2023-05-15T11:22:28.857Z,5.85
2023-05-15T11:25:00.633Z,6.40
2023-05-15T11:27:32.035Z,5.82
2023-05-15T11:30:20.528Z,5.97
2023-05-15T11:32:55.642Z,5.53
2023-05-15T11:35:28.753Z,5.97
2023-05-15T11:37:58.716Z,5.63
2023-05-15T11:40:28.889Z,5.78
2023-05-15T11:43:02.224Z,6.20
2023-05-15T11:45:35.139Z,6.30
2023-05-15T11:48:05.989Z,6.03
2023-05-15T11:50:54.821Z,7.28
2023-05-15T11:53:24.335Z,7.53
2023-05-15T11:55:54.613Z,7.88
2023-05-15T11:58:24.266Z,7.00
2023-05-15T12:00:54.952Z,7.13
2023-05-15T12:03:26.103Z,6.70
2023-05-15T12:05:59.449Z,6.50
2023-05-15T12:08:33.261Z,6.60
2023-05-15T12:11:03.130Z,6.20
2023-05-15T12:13:32.470Z,5.82
2023-05-15T12:16:03.891Z,5.15
2023-05-15T12:18:33.023Z,5.50
2023-05-15T12:21:01.569Z,6.43
2023-05-15T12:23:29.885Z,6.10
2023-05-15T12:26:00.924Z,5.68
2023-05-15T12:28:30.635Z,5.75
2023-05-15T12:30:59.686Z,6.47
2023-05-15T12:33:29.527Z,6.75
2023-05-15T12:36:01.160Z,6.40
2023-05-15T12:38:30.758Z,6.63
2023-05-15T12:40:59.913Z,6.28
2023-05-15T12:43:28.534Z,6.15
2023-05-15T12:45:57.429Z,6.05
2023-05-15T12:48:32.873Z,5.65
2023-05-15T12:51:07.375Z,6.03
2023-05-15T12:53:36.313Z,6.55
2023-05-15T12:56:05.509Z,5.88
2023-05-15T12:58:34.607Z,6.70
2023-05-15T13:01:03.926Z,5.75
2023-05-15T13:03:34.094Z,6.60
2023-05-15T13:06:03.703Z,6.60
2023-05-15T13:08:31.952Z,6.30
2023-05-15T13:11:01.104Z,6.35
2023-05-15T13:13:44.031Z,5.90
2023-05-15T13:16:23.003Z,8.75
2023-05-15T13:18:53.122Z,10.63
2023-05-15T13:21:21.563Z,7.20
2023-05-15T13:23:49.780Z,7.25
2023-05-15T13:26:18.108Z,5.43
2023-05-15T13:28:46.359Z,5.30
2023-05-15T13:31:14.758Z,4.78
2023-05-15T13:33:43.151Z,4.72
2023-05-15T13:36:13.418Z,4.80
2023-05-15T13:38:41.719Z,5.47
2023-05-15T13:41:10.440Z,5.53
2023-05-15T13:43:38.774Z,4.72
2023-05-15T13:46:06.974Z,4.50
2023-05-15T13:48:35.240Z,4.80
2023-05-15T13:51:03.601Z,5.30
2023-05-15T13:53:33.322Z,5.28
2023-05-15T13:56:01.703Z,5.40
2023-05-15T13:58:30.033Z,4.47
2023-05-15T14:00:58.446Z,4.68
2023-05-15T14:03:26.879Z,4.78
2023-05-15T14:05:55.274Z,4.47
2023-05-15T14:08:23.578Z,4.47
2023-05-15T14:10:53.233Z,4.07
2023-05-15T14:13:21.698Z,4.95
2023-05-15T14:15:49.921Z,4.30
2023-05-15T14:18:18.309Z,4.15
2023-05-15T14:20:46.570Z,3.95
2023-05-15T14:23:15.547Z,4.10
2023-05-15T14:25:43.995Z,4.15
2023-05-15T14:28:13.687Z,4.45
2023-05-15T14:30:42.020Z,4.38
2023-05-15T14:33:10.324Z,4.45
2023-05-15T14:35:38.656Z,3.53
2023-05-15T14:38:07.073Z,3.65
2023-05-15T14:40:35.639Z,3.65
2023-05-15T14:43:04.003Z,3.75
2023-05-15T14:45:33.824Z,3.40
2023-05-15T14:48:02.125Z,4.13
2023-05-15T14:50:30.439Z,3.63
2023-05-15T14:52:58.801Z,3.00
2023-05-15T14:55:27.081Z,3.50
2023-05-15T14:57:55.361Z,3.20
2023-05-15T15:00:24.166Z,3.60
2023-05-15T15:02:54.388Z,3.22
2023-05-15T15:05:22.855Z,3.42
2023-05-15T15:08:02.368Z,3.30
2023-05-15T15:10:31.326Z,2.92
2023-05-15T15:12:59.624Z,3.47
2023-05-15T15:15:28.489Z,3.30
2023-05-15T15:17:58.566Z,3.45
2023-05-15T15:20:28.072Z,3.05
2023-05-15T15:22:57.055Z,3.15
2023-05-15T15:25:25.644Z,2.88
2023-05-15T15:27:53.997Z,3.08
2023-05-15T15:30:22.418Z,3.17
2023-05-15T15:32:50.753Z,3.08
2023-05-15T15:35:20.513Z,3.10
2023-05-15T15:37:48.770Z,3.70
2023-05-15T15:40:17.070Z,3.00
2023-05-15T15:42:45.328Z,3.45
2023-05-15T15:45:13.637Z,3.00
2023-05-15T15:47:41.943Z,3.03
2023-05-15T15:50:10.785Z,2.83
2023-05-15T15:52:40.456Z,3.17
2023-05-15T15:55:10.141Z,3.90
2023-05-15T15:57:38.608Z,3.50
2023-05-15T16:00:08.272Z,3.60
2023-05-15T16:02:36.905Z,3.75
2023-05-15T16:05:05.829Z,3.70
2023-05-15T16:07:34.241Z,3.22
2023-05-15T16:10:12.458Z,3.30
2023-05-15T16:12:42.340Z,3.40
2023-05-15T16:20:11.536Z,102.25
2023-05-15T16:22:41.634Z,118.88
2023-05-15T16:25:11.585Z,157.73
2023-05-15T16:27:39.941Z,167.88
2023-05-15T16:30:10.859Z,98.78
2023-05-15T16:32:39.220Z,74.65
2023-05-15T16:35:08.113Z,45.90
2023-05-15T16:37:36.456Z,34.60
2023-05-15T16:40:06.118Z,26.80
2023-05-15T16:42:38.889Z,20.92
2023-05-15T16:45:08.482Z,16.67
2023-05-15T16:47:39.166Z,12.40
2023-05-15T16:50:08.674Z,10.47
2023-05-15T16:52:38.696Z,8.13
2023-05-15T16:55:07.964Z,7.03
2023-05-15T16:57:37.678Z,5.68
2023-05-15T17:00:08.820Z,4.60
2023-05-15T17:02:37.195Z,4.35
2023-05-15T17:05:07.842Z,5.18
2023-05-15T17:07:37.139Z,4.15
2023-05-15T17:10:06.221Z,4.30
2023-05-15T17:12:34.612Z,3.53
2023-05-15T17:15:04.591Z,3.75
2023-05-15T17:17:33.065Z,3.00
2023-05-15T17:20:02.784Z,3.05
2023-05-15T17:22:31.694Z,2.80
2023-05-15T17:24:59.987Z,2.83
2023-05-15T17:27:28.298Z,2.50
2023-05-15T17:29:56.705Z,2.63
2023-05-15T17:32:26.585Z,2.60
2023-05-15T17:34:55.152Z,2.70
2023-05-15T17:37:23.415Z,3.15
2023-05-15T17:39:51.661Z,3.10
2023-05-15T17:42:19.914Z,3.20
2023-05-15T17:44:48.250Z,2.90
2023-05-15T17:47:16.640Z,3.22
2023-05-15T17:49:46.327Z,3.42
2023-05-15T17:52:14.729Z,3.35
2023-05-15T17:54:42.937Z,3.20
2023-05-15T17:57:11.246Z,3.33
2023-05-15T17:59:39.505Z,3.28
2023-05-15T18:02:08.328Z,3.30
2023-05-15T18:04:36.750Z,3.50
2023-05-15T18:07:06.595Z,3.40
2023-05-15T18:09:34.989Z,3.63
2023-05-15T18:12:03.256Z,12.43
2023-05-15T18:14:31.638Z,87.75
2023-05-15T18:16:59.865Z,76.63
2023-05-15T18:19:28.163Z,205.27
2023-05-15T18:21:57.480Z,104.43
2023-05-15T18:24:27.167Z,91.25
2023-05-15T18:26:55.525Z,78.97
2023-05-15T18:29:24.857Z,60.33
2023-05-15T18:31:53.255Z,40.42
2023-05-15T18:34:21.761Z,78.82
2023-05-15T18:36:51.956Z,98.90
2023-05-15T18:39:20.648Z,97.97
2023-05-15T18:41:50.223Z,83.65
2023-05-15T18:44:18.512Z,82.57
2023-05-15T18:46:46.731Z,93.78
2023-05-15T18:49:17.320Z,74.85
2023-05-15T18:51:45.775Z,56.15
2023-05-15T18:54:14.003Z,100.38
2023-05-15T18:56:43.257Z,91.38
2023-05-15T18:59:13.088Z,140.95
2023-05-15T19:01:41.485Z,104.53
2023-05-15T19:04:10.117Z,104.93
2023-05-15T19:06:39.256Z,75.45
2023-05-15T19:09:09.499Z,53.22
2023-05-15T19:11:37.991Z,39.15
2023-05-15T19:14:06.303Z,26.60
2023-05-15T19:16:36.001Z,19.30
2023-05-15T19:19:04.582Z,14.32
2023-05-15T19:21:32.949Z,10.70
2023-05-15T19:24:01.309Z,7.30
2023-05-15T19:26:29.674Z,6.13
2023-05-15T19:28:58.060Z,5.72
2023-05-15T19:31:31.381Z,4.65
2023-05-15T19:34:01.786Z,4.90
2023-05-15T19:36:30.068Z,4.38
2023-05-15T19:38:58.327Z,4.65
2023-05-15T19:41:27.025Z,4.50
2023-05-15T19:43:55.368Z,4.53
2023-05-15T19:46:23.736Z,4.05
2023-05-15T19:48:52.137Z,3.75
2023-05-15T19:51:22.118Z,4.20
2023-05-15T19:53:50.418Z,4.18
2023-05-15T19:56:18.680Z,4.05
2023-05-15T19:58:46.954Z,4.03
2023-05-15T20:01:15.430Z,3.90
2023-05-15T20:03:43.818Z,3.72
2023-05-15T20:06:12.987Z,3.72
2023-05-15T20:08:42.608Z,3.95
2023-05-15T20:11:11.225Z,3.90
2023-05-15T20:13:39.721Z,3.95
2023-05-15T20:16:10.405Z,4.20
2023-05-15T20:18:39.805Z,4.00
2023-05-15T20:21:08.091Z,3.83
2023-05-15T20:23:36.522Z,4.00
2023-05-15T20:26:06.206Z,4.03
2023-05-15T20:28:34.452Z,4.20
2023-05-15T20:31:03.068Z,3.80
2023-05-15T20:33:31.734Z,3.80
2023-05-15T20:36:00.290Z,3.55
2023-05-15T20:38:28.621Z,3.55
2023-05-15T20:40:57.346Z,3.75
2023-05-15T20:43:26.991Z,3.65
2023-05-15T20:45:55.625Z,3.75
2023-05-15T20:48:23.867Z,3.80
2023-05-15T20:50:53.815Z,3.38
2023-05-15T20:53:22.029Z,3.55
2023-05-15T20:55:50.403Z,3.80
2023-05-15T20:58:18.676Z,3.65
2023-05-15T21:00:48.685Z,3.15
2023-05-15T21:03:17.131Z,3.30
2023-05-15T21:05:45.842Z,3.10
2023-05-15T21:08:14.271Z,3.67
2023-05-15T21:10:42.547Z,3.20
2023-05-15T21:13:10.820Z,3.10
2023-05-15T21:15:39.125Z,3.13
2023-05-15T21:18:08.808Z,2.80
2023-05-15T21:20:37.092Z,3.00
2023-05-15T21:23:05.467Z,2.60
2023-05-15T21:25:34.617Z,2.95
2023-05-15T21:28:02.854Z,3.13
2023-05-15T21:30:31.700Z,3.10
2023-05-15T21:33:00.018Z,2.83
2023-05-15T21:35:31.782Z,3.03
2023-05-15T21:38:00.655Z,2.63
2023-05-15T21:40:29.077Z,2.97
2023-05-15T21:42:57.709Z,3.10
2023-05-15T21:45:26.071Z,2.90
2023-05-15T21:47:54.349Z,3.08
2023-05-15T21:50:22.713Z,2.75
2023-05-15T21:52:52.413Z,2.72
2023-05-15T21:55:21.206Z,2.63
2023-05-15T21:57:49.508Z,2.95
2023-05-15T22:00:18.395Z,2.60
2023-05-15T22:02:47.034Z,3.00
2023-05-15T22:05:16.125Z,2.92
2023-05-15T22:07:44.522Z,2.95
2023-05-15T22:10:16.523Z,2.80
2023-05-15T22:12:45.128Z,3.10
2023-05-15T22:15:25.184Z,3.05
2023-05-15T22:17:54.048Z,3.00
2023-05-15T22:20:23.824Z,2.78
2023-05-15T22:22:52.334Z,2.80
2023-05-15T22:25:22.011Z,2.90
2023-05-15T22:27:50.689Z,3.20
2023-05-15T22:30:19.053Z,3.10
2023-05-15T22:32:47.403Z,3.20
2023-05-15T22:35:15.817Z,3.10
2023-05-15T22:37:45.557Z,3.20
2023-05-15T22:40:14.588Z,3.13
2023-05-15T22:42:44.154Z,3.60
2023-05-15T22:45:13.026Z,3.47
2023-05-15T22:47:41.306Z,2.92
2023-05-15T22:50:10.618Z,3.50
2023-05-15T22:52:39.282Z,3.40
2023-05-15T22:55:19.946Z,2.92
2023-05-15T22:57:49.831Z,2.83
2023-05-15T23:00:19.134Z,3.05
2023-05-15T23:02:47.689Z,3.10
2023-05-15T23:05:16.018Z,3.35
2023-05-15T23:07:44.240Z,3.05
2023-05-15T23:10:18.045Z,3.10
2023-05-15T23:12:47.348Z,2.90
2023-05-15T23:15:17.614Z,2.72
2023-05-15T23:17:46.149Z,3.05
2023-05-15T23:20:15.036Z,3.00
2023-05-15T23:22:43.254Z,3.15
2023-05-15T23:25:12.009Z,2.92
2023-05-15T23:27:40.236Z,3.05
2023-05-15T23:30:09.884Z,2.70
2023-05-15T23:32:39.556Z,2.85
2023-05-15T23:35:08.450Z,3.08
2023-05-15T23:37:37.159Z,3.08
2023-05-15T23:40:06.537Z,2.90
2023-05-15T23:42:34.846Z,3.00
2023-05-15T23:45:03.228Z,2.90
2023-05-15T23:47:31.729Z,2.80
2023-05-15T23:50:01.665Z,3.03
2023-05-15T23:52:29.984Z,2.58
2023-05-15T23:54:58.172Z,2.70
2023-05-15T23:57:26.682Z,2.90
2023-05-15T23:59:55.033Z,3.15
